Kazime Ana — TCPT8 — position and weather

sailwx.info

Track history (hours):
 
Tides and Currents Weather Stations Pressure Air Temp Water Temp Dewpoint Dewpoint Depression Visibility Wind Speed Wind Dir Waves Ship Positions

Kazime Ana

Last reported at 2014-Nov-16 20:29 UTC. Time now 2014-Nov-24 08:17 UTC.
Position N 41°17' E 029°44'.

Length 115 m; draft 6.9 m.

Type: Cargo ship. MMSI: 271001019.

Date/timePositionNaut miles runAvg speedWind from/ knotsBaromVisibWave heightAir tempDewpointWater temp
2014-Nov-16 20:29N 41°17' E 029°44'9 9.6
2014-Nov-16 19:33N 41°17' E 029°32'10 9.7
2014-Nov-16 18:33N 41°16' E 029°19'  
2014-Nov-14 04:13N 41°18' E 029°12'710.7
2014-Nov-14 03:33N 41°21' E 029°20'  
2014-Nov-10 06:33N 41°17' E 029°46'1010.1
2014-Nov-10 05:33N 41°16' E 029°33'1010.2
2014-Nov-10 04:33N 41°16' E 029°20'23 7.7
2014-Nov-10 01:32N 40°58' E 028°60'6 6.4
2014-Nov-10 00:33N 40°53' E 028°55'7 7.5
2014-Nov-09 23:33N 40°46' E 028°52'0 0.2
2014-Nov-09 22:33N 40°46' E 028°52'0 0.2
2014-Nov-09 21:32N 40°46' E 028°52'0 0.2
2014-Nov-09 20:33N 40°46' E 028°51'0 0.1
2014-Nov-09 19:29N 40°46' E 028°51'5 5.4
2014-Nov-09 18:30N 40°43' E 028°45'30 1.3
2014-Nov-08 19:08N 40°28' E 028°12'1911.6
2014-Nov-08 17:28N 40°38' E 028°33'1011.4
2014-Nov-08 16:33N 40°40' E 028°47'1111.2
2014-Nov-08 15:33N 40°42' E 029°01'1111.3
2014-Nov-08 14:33N 40°44' E 029°16'5 0.2
2014-Nov-07 12:18N 40°45' E 029°22'0 0.0
2014-Nov-07 11:30N 40°45' E 029°22'0 0.0
2014-Nov-07 10:06N 40°45' E 029°22'0 0.0
2014-Nov-07 09:18N 40°45' E 029°22'0 0.0
2014-Nov-07 08:24N 40°45' E 029°22'0 0.0
2014-Nov-07 07:24N 40°45' E 029°22'0 0.0
2014-Nov-07 06:24N 40°45' E 029°22'0 0.0
2014-Nov-07 03:30N 40°45' E 029°22'0 0.0
2014-Nov-07 01:30N 40°45' E 029°22'0 0.0
2014-Nov-07 00:30N 40°45' E 029°22'0 0.0
2014-Nov-06 22:30N 40°45' E 029°22'0 0.0
2014-Nov-06 21:12N 40°45' E 029°22'  
Track history (hours):
 
Tides and Currents Weather Stations Pressure Air Temp Water Temp Dewpoint Dewpoint Depression Visibility Wind Speed Wind Dir Waves Ship Positions

Kazime Ana

Last reported at 2014-Nov-16 20:29 UTC. Time now 2014-Nov-24 08:17 UTC.
Position N 41°17' E 029°44'.

Length 115 m; draft 6.9 m.

Type: Cargo ship. MMSI: 271001019.

Date/timePositionNaut miles runAvg speedWind from/ knotsBaromVisibWave heightAir tempDewpointWater temp
2014-Nov-16 20:29N 41°17' E 029°44'9 9.6
2014-Nov-16 19:33N 41°17' E 029°32'10 9.7
2014-Nov-16 18:33N 41°16' E 029°19'  
2014-Nov-14 04:13N 41°18' E 029°12'710.7
2014-Nov-14 03:33N 41°21' E 029°20'  
2014-Nov-10 06:33N 41°17' E 029°46'1010.1
2014-Nov-10 05:33N 41°16' E 029°33'1010.2
2014-Nov-10 04:33N 41°16' E 029°20'23 7.7
2014-Nov-10 01:32N 40°58' E 028°60'6 6.4
2014-Nov-10 00:33N 40°53' E 028°55'7 7.5
2014-Nov-09 23:33N 40°46' E 028°52'0 0.2
2014-Nov-09 22:33N 40°46' E 028°52'0 0.2
2014-Nov-09 21:32N 40°46' E 028°52'0 0.2
2014-Nov-09 20:33N 40°46' E 028°51'0 0.1
2014-Nov-09 19:29N 40°46' E 028°51'5 5.4
2014-Nov-09 18:30N 40°43' E 028°45'30 1.3
2014-Nov-08 19:08N 40°28' E 028°12'1911.6
2014-Nov-08 17:28N 40°38' E 028°33'1011.4
2014-Nov-08 16:33N 40°40' E 028°47'1111.2
2014-Nov-08 15:33N 40°42' E 029°01'1111.3
2014-Nov-08 14:33N 40°44' E 029°16'5 0.2
2014-Nov-07 12:18N 40°45' E 029°22'0 0.0
2014-Nov-07 11:30N 40°45' E 029°22'0 0.0
2014-Nov-07 10:06N 40°45' E 029°22'0 0.0
2014-Nov-07 09:18N 40°45' E 029°22'0 0.0
2014-Nov-07 08:24N 40°45' E 029°22'0 0.0
2014-Nov-07 07:24N 40°45' E 029°22'0 0.0
2014-Nov-07 06:24N 40°45' E 029°22'0 0.0
2014-Nov-07 03:30N 40°45' E 029°22'0 0.0
2014-Nov-07 01:30N 40°45' E 029°22'0 0.0
2014-Nov-07 00:30N 40°45' E 029°22'0 0.0
2014-Nov-06 22:30N 40°45' E 029°22'0 0.0
2014-Nov-06 21:12N 40°45' E 029°22'  

Dump ship's entire track history